createdAt,value
2017-10-29T00:00:17.265Z,0
2017-10-29T00:00:57.722Z,0
2017-10-29T00:01:38.176Z,0
2017-10-29T00:02:18.627Z,0
2017-10-29T00:02:59.070Z,0
2017-10-29T00:03:39.522Z,0
2017-10-29T00:04:19.968Z,0
2017-10-29T00:05:00.423Z,0
2017-10-29T00:05:40.872Z,0
2017-10-29T00:06:21.352Z,0
2017-10-29T00:07:01.783Z,0
2017-10-29T00:07:42.241Z,0
2017-10-29T00:08:22.688Z,0
2017-10-29T00:09:03.133Z,0
2017-10-29T00:09:43.591Z,0
2017-10-29T00:10:24.038Z,0
2017-10-29T00:11:04.496Z,0
2017-10-29T00:11:44.967Z,0
2017-10-29T00:12:25.430Z,0
2017-10-29T00:13:05.878Z,0
2017-10-29T00:13:46.340Z,0
2017-10-29T00:14:26.793Z,0
2017-10-29T00:15:07.331Z,0
2017-10-29T00:17:20.067Z,0
2017-10-29T00:18:00.550Z,0
2017-10-29T00:18:40.977Z,0
2017-10-29T00:19:21.427Z,0
2017-10-29T00:20:01.867Z,0
2017-10-29T00:20:42.324Z,0
2017-10-29T00:21:22.768Z,0
2017-10-29T00:22:03.221Z,0
2017-10-29T00:22:43.699Z,0
2017-10-29T00:23:24.129Z,0
2017-10-29T00:24:04.583Z,0
2017-10-29T00:24:45.035Z,0
2017-10-29T00:25:25.494Z,0
2017-10-29T00:26:05.942Z,0
2017-10-29T00:26:46.386Z,0
2017-10-29T00:27:26.848Z,0
2017-10-29T00:28:07.298Z,0
2017-10-29T00:28:47.747Z,0
2017-10-29T00:29:28.193Z,0
2017-10-29T00:30:08.642Z,0
2017-10-29T00:30:49.101Z,0
2017-10-29T00:31:29.554Z,0
2017-10-29T00:32:10.012Z,0
2017-10-29T00:32:50.462Z,0
2017-10-29T00:33:30.907Z,0
2017-10-29T00:34:11.367Z,0
2017-10-29T00:34:51.812Z,0
2017-10-29T00:35:32.266Z,0
2017-10-29T00:36:12.735Z,0
2017-10-29T00:36:53.198Z,0
2017-10-29T00:37:33.646Z,0
2017-10-29T00:38:14.103Z,0
2017-10-29T00:38:54.558Z,0
2017-10-29T00:39:35.018Z,0
2017-10-29T00:40:15.495Z,0
2017-10-29T00:40:55.947Z,0
2017-10-29T00:41:36.407Z,0
2017-10-29T00:42:16.857Z,0
2017-10-29T00:42:57.315Z,0
2017-10-29T00:43:37.759Z,0
2017-10-29T00:44:18.218Z,0
2017-10-29T00:44:58.690Z,0
2017-10-29T00:45:39.124Z,0
2017-10-29T00:46:19.568Z,0
2017-10-29T00:47:00.031Z,0
2017-10-29T00:47:40.529Z,0
2017-10-29T00:48:20.949Z,0
2017-10-29T00:49:01.419Z,0
2017-10-29T00:49:41.870Z,0
2017-10-29T00:50:22.323Z,0
2017-10-29T00:51:02.774Z,0
2017-10-29T00:51:43.224Z,0
2017-10-29T00:52:23.677Z,0
2017-10-29T00:53:04.135Z,0
2017-10-29T00:53:44.601Z,0
2017-10-29T00:54:25.058Z,0
2017-10-29T00:55:05.505Z,0
2017-10-29T00:55:45.955Z,0
2017-10-29T00:56:26.394Z,0
2017-10-29T00:57:06.840Z,0
2017-10-29T00:57:47.297Z,0
2017-10-29T00:58:27.761Z,0
2017-10-29T00:59:08.210Z,0
2017-10-29T00:59:48.672Z,0
2017-10-29T01:00:29.116Z,0
2017-10-29T01:01:09.576Z,0
2017-10-29T01:01:50.032Z,0
2017-10-29T01:02:30.481Z,0
2017-10-29T01:03:10.937Z,0
2017-10-29T01:03:51.397Z,0
2017-10-29T01:04:31.842Z,0
2017-10-29T01:05:12.296Z,0
2017-10-29T01:05:52.752Z,0
2017-10-29T01:06:33.205Z,0
2017-10-29T01:07:13.653Z,0
2017-10-29T01:07:54.132Z,0
2017-10-29T01:08:34.578Z,0
2017-10-29T01:09:15.032Z,0
2017-10-29T01:09:55.490Z,0
2017-10-29T01:10:35.936Z,0
2017-10-29T01:11:16.381Z,0
2017-10-29T01:11:56.823Z,0
2017-10-29T01:12:37.275Z,0
2017-10-29T01:13:17.736Z,0
2017-10-29T01:13:58.189Z,0
2017-10-29T01:14:38.651Z,0
2017-10-29T01:15:19.101Z,0
2017-10-29T01:15:59.546Z,0
2017-10-29T01:16:40.003Z,0
2017-10-29T01:17:20.453Z,0
2017-10-29T01:18:00.907Z,0
2017-10-29T01:18:41.369Z,0
2017-10-29T01:19:21.822Z,0
2017-10-29T01:20:02.279Z,0
2017-10-29T01:20:42.740Z,0
2017-10-29T01:21:23.182Z,0
2017-10-29T01:22:03.641Z,0
2017-10-29T01:22:44.123Z,0
2017-10-29T01:23:24.545Z,0
2017-10-29T01:24:04.986Z,0
2017-10-29T01:24:45.435Z,0
2017-10-29T01:25:25.884Z,0
2017-10-29T01:26:06.351Z,0
2017-10-29T01:26:46.796Z,0
2017-10-29T01:27:27.245Z,0
2017-10-29T01:28:07.751Z,0
2017-10-29T01:28:48.197Z,0
2017-10-29T01:29:28.644Z,0
2017-10-29T01:30:09.089Z,0
2017-10-29T01:30:49.541Z,0
2017-10-29T01:31:29.994Z,0
2017-10-29T01:32:10.454Z,0
2017-10-29T01:32:50.890Z,0
2017-10-29T01:33:31.346Z,0
2017-10-29T01:34:11.832Z,0
2017-10-29T01:34:52.260Z,0
2017-10-29T01:35:32.710Z,0
2017-10-29T01:36:13.171Z,0
2017-10-29T01:36:53.623Z,0
2017-10-29T01:37:34.071Z,0
2017-10-29T01:38:14.524Z,0
2017-10-29T01:38:54.986Z,0
2017-10-29T01:39:35.438Z,0
2017-10-29T01:40:15.893Z,0
2017-10-29T01:40:56.350Z,0
2017-10-29T01:41:36.813Z,0
2017-10-29T01:42:17.267Z,0
2017-10-29T01:42:57.715Z,0
2017-10-29T01:43:38.169Z,0
2017-10-29T01:44:18.627Z,0
2017-10-29T01:44:59.086Z,0
2017-10-29T01:45:39.533Z,0
2017-10-29T01:46:19.995Z,0
2017-10-29T01:47:00.456Z,0
2017-10-29T01:47:40.908Z,0
2017-10-29T01:48:21.363Z,0
2017-10-29T01:49:01.818Z,0
2017-10-29T01:49:42.273Z,0
2017-10-29T01:50:22.727Z,0
2017-10-29T01:51:03.184Z,0
2017-10-29T01:51:43.634Z,0
2017-10-29T01:52:24.077Z,0
2017-10-29T01:53:04.540Z,0
2017-10-29T01:53:44.979Z,0
2017-10-29T01:54:25.444Z,0
2017-10-29T01:55:05.892Z,0
2017-10-29T01:55:46.352Z,0
2017-10-29T01:56:26.807Z,0
2017-10-29T01:57:07.253Z,0
2017-10-29T01:57:47.705Z,0
2017-10-29T01:58:28.160Z,0
2017-10-29T01:59:08.624Z,0
2017-10-29T01:59:49.065Z,0
2017-10-29T02:00:29.521Z,0
2017-10-29T02:01:09.975Z,0
2017-10-29T02:01:50.432Z,0
2017-10-29T02:02:30.877Z,0
2017-10-29T02:03:11.328Z,0
2017-10-29T02:03:51.776Z,0
2017-10-29T02:04:32.223Z,0
2017-10-29T02:05:12.667Z,0
2017-10-29T02:05:53.126Z,0
2017-10-29T02:06:33.582Z,0
2017-10-29T02:07:14.032Z,0
2017-10-29T02:07:54.491Z,0
2017-10-29T02:08:34.931Z,0
2017-10-29T02:09:15.398Z,0
2017-10-29T02:09:55.842Z,0
2017-10-29T02:10:36.301Z,0
2017-10-29T02:11:16.750Z,0
2017-10-29T02:11:57.225Z,0
2017-10-29T02:12:37.675Z,0
2017-10-29T02:13:18.123Z,0
2017-10-29T02:13:58.572Z,0
2017-10-29T02:14:39.029Z,0
2017-10-29T02:15:19.496Z,0
2017-10-29T02:15:59.940Z,0
2017-10-29T02:16:40.394Z,0
2017-10-29T02:17:20.847Z,0
2017-10-29T02:18:01.304Z,0
2017-10-29T02:18:41.756Z,0
2017-10-29T02:19:22.222Z,0
2017-10-29T02:20:02.668Z,0
2017-10-29T02:20:43.111Z,0
2017-10-29T02:21:23.555Z,0
2017-10-29T02:22:04.006Z,0
2017-10-29T02:22:44.465Z,0
2017-10-29T02:23:24.918Z,0
2017-10-29T02:24:05.369Z,0
2017-10-29T02:24:45.840Z,0
2017-10-29T02:25:26.283Z,0
2017-10-29T02:26:06.735Z,0
2017-10-29T02:26:47.180Z,0
2017-10-29T02:27:27.649Z,0
2017-10-29T02:28:08.091Z,0
2017-10-29T02:28:48.542Z,0
2017-10-29T02:29:29.008Z,0
2017-10-29T02:30:09.458Z,0
2017-10-29T02:30:49.908Z,0
2017-10-29T02:31:30.361Z,0
2017-10-29T02:32:10.826Z,0
2017-10-29T02:32:51.278Z,0
2017-10-29T02:33:31.737Z,0
2017-10-29T02:34:12.189Z,0
2017-10-29T02:34:52.635Z,0
2017-10-29T02:35:33.095Z,0
2017-10-29T02:36:13.576Z,0
2017-10-29T02:36:54.015Z,0
2017-10-29T02:37:34.467Z,0
2017-10-29T02:38:14.923Z,0
2017-10-29T02:38:55.372Z,0
2017-10-29T02:39:35.815Z,0
2017-10-29T02:40:16.268Z,0
2017-10-29T02:40:56.730Z,0
2017-10-29T02:41:37.186Z,0
2017-10-29T02:42:17.629Z,0
2017-10-29T02:42:58.074Z,0
2017-10-29T02:43:38.525Z,0
2017-10-29T02:44:18.988Z,0
2017-10-29T02:44:59.445Z,0
2017-10-29T02:45:39.894Z,0
2017-10-29T02:46:20.359Z,0
2017-10-29T02:47:00.810Z,0
2017-10-29T02:47:41.253Z,0
2017-10-29T02:48:21.718Z,0
2017-10-29T02:49:02.170Z,0
2017-10-29T02:49:42.633Z,0
2017-10-29T02:50:23.083Z,0
2017-10-29T02:51:03.540Z,0
2017-10-29T02:51:44.004Z,0
2017-10-29T02:52:24.448Z,0
2017-10-29T02:53:04.896Z,0
2017-10-29T02:53:45.340Z,0
2017-10-29T02:54:25.794Z,0
2017-10-29T02:55:06.258Z,0
2017-10-29T02:55:46.710Z,0
2017-10-29T02:56:27.169Z,0
2017-10-29T02:57:07.628Z,0
2017-10-29T02:57:48.086Z,0
2017-10-29T02:58:28.515Z,0
2017-10-29T02:59:08.971Z,0
2017-10-29T02:59:49.424Z,0
2017-10-29T03:00:29.871Z,0
2017-10-29T03:01:10.323Z,0
2017-10-29T03:01:50.787Z,0
2017-10-29T03:02:31.239Z,0
2017-10-29T03:03:11.691Z,0
2017-10-29T03:03:52.148Z,0
2017-10-29T03:04:32.601Z,0
2017-10-29T03:05:13.055Z,0
2017-10-29T03:05:53.514Z,0
2017-10-29T03:06:33.970Z,0
2017-10-29T03:07:14.418Z,0
2017-10-29T03:07:54.867Z,0
2017-10-29T03:08:35.323Z,0
2017-10-29T03:09:15.780Z,0
2017-10-29T03:09:56.228Z,0
2017-10-29T03:10:36.685Z,0
2017-10-29T03:11:17.140Z,0
2017-10-29T03:11:57.597Z,0
2017-10-29T03:12:38.070Z,0
2017-10-29T03:13:18.523Z,0
2017-10-29T03:13:58.987Z,0
2017-10-29T03:14:39.446Z,0
2017-10-29T03:15:19.908Z,0
2017-10-29T03:16:00.374Z,0
2017-10-29T03:16:40.834Z,0
2017-10-29T03:17:21.285Z,0
2017-10-29T03:18:01.743Z,0
2017-10-29T03:18:42.203Z,0
2017-10-29T03:19:22.649Z,0
2017-10-29T03:20:03.113Z,0
2017-10-29T03:20:43.575Z,0
2017-10-29T03:21:24.033Z,0
2017-10-29T03:22:04.484Z,0
2017-10-29T03:22:44.930Z,0
2017-10-29T03:23:25.388Z,0
2017-10-29T03:24:05.840Z,0
2017-10-29T03:24:46.277Z,0
2017-10-29T03:25:26.740Z,0
2017-10-29T03:26:07.188Z,0
2017-10-29T03:26:47.626Z,0
2017-10-29T03:27:28.074Z,0
2017-10-29T03:28:08.529Z,0
2017-10-29T03:28:48.970Z,0
2017-10-29T03:29:29.414Z,0
2017-10-29T03:30:09.874Z,0
2017-10-29T03:30:50.326Z,0
2017-10-29T03:31:30.777Z,0
2017-10-29T03:32:11.236Z,0
2017-10-29T03:32:51.689Z,0
2017-10-29T03:33:32.144Z,0
2017-10-29T03:34:12.598Z,0
2017-10-29T03:34:53.053Z,0
2017-10-29T03:35:33.506Z,0
2017-10-29T03:36:13.971Z,0
2017-10-29T03:36:54.423Z,0
2017-10-29T03:37:34.888Z,0
2017-10-29T03:38:15.333Z,0
2017-10-29T03:38:55.789Z,0
2017-10-29T03:39:36.231Z,0
2017-10-29T03:40:16.678Z,0
2017-10-29T03:40:57.128Z,0
2017-10-29T03:41:37.582Z,0
2017-10-29T03:42:18.049Z,0
2017-10-29T03:42:58.491Z,0
2017-10-29T03:43:38.938Z,0
2017-10-29T03:44:19.383Z,0
2017-10-29T03:44:59.840Z,0
2017-10-29T03:45:40.297Z,0
2017-10-29T03:46:20.754Z,0
2017-10-29T03:47:01.208Z,0
2017-10-29T03:47:41.663Z,0
2017-10-29T03:48:22.113Z,0
2017-10-29T03:49:02.583Z,0
2017-10-29T03:49:43.031Z,0
2017-10-29T03:50:23.479Z,0
2017-10-29T03:51:03.940Z,0
2017-10-29T03:51:44.393Z,0
2017-10-29T03:52:24.840Z,0
2017-10-29T03:53:05.284Z,0
2017-10-29T03:53:45.738Z,0
2017-10-29T03:54:26.192Z,0
2017-10-29T03:55:06.650Z,0
2017-10-29T03:55:47.095Z,0
2017-10-29T03:56:27.545Z,0
2017-10-29T03:57:08.000Z,0
2017-10-29T03:57:48.455Z,0
2017-10-29T03:58:28.904Z,0
2017-10-29T03:59:09.365Z,0
2017-10-29T03:59:49.836Z,0
2017-10-29T04:00:30.304Z,0
2017-10-29T04:01:10.766Z,0
2017-10-29T04:01:51.219Z,0
2017-10-29T04:02:31.672Z,0
2017-10-29T04:03:12.121Z,0
2017-10-29T04:03:52.584Z,0
2017-10-29T04:04:33.041Z,0
2017-10-29T04:05:13.490Z,0
2017-10-29T04:05:53.935Z,0
2017-10-29T04:06:34.382Z,0
2017-10-29T04:07:14.822Z,0
2017-10-29T04:07:55.273Z,0
2017-10-29T04:08:35.732Z,0
2017-10-29T04:09:16.186Z,0
2017-10-29T04:09:56.653Z,0
2017-10-29T04:10:37.111Z,0
2017-10-29T04:11:17.580Z,0
2017-10-29T04:11:58.031Z,0
2017-10-29T04:12:38.481Z,0
2017-10-29T04:13:18.939Z,0
2017-10-29T04:13:59.398Z,0
2017-10-29T04:14:39.858Z,0
2017-10-29T04:15:20.316Z,0
2017-10-29T04:16:00.781Z,0
2017-10-29T04:16:41.229Z,0
2017-10-29T04:17:21.687Z,0
2017-10-29T04:18:02.143Z,0
2017-10-29T04:18:42.638Z,0
2017-10-29T04:19:23.086Z,0
2017-10-29T04:20:03.541Z,0
2017-10-29T04:20:44.000Z,0
2017-10-29T04:21:24.449Z,0
2017-10-29T04:22:04.898Z,0
2017-10-29T04:22:45.343Z,0
2017-10-29T04:23:25.826Z,0
2017-10-29T04:24:06.259Z,0
2017-10-29T04:24:46.718Z,0
2017-10-29T04:25:27.172Z,0
2017-10-29T04:26:07.625Z,0
2017-10-29T04:26:48.081Z,0
2017-10-29T04:27:28.534Z,0
2017-10-29T04:28:08.998Z,0
2017-10-29T04:28:49.451Z,0
2017-10-29T04:29:29.913Z,0
2017-10-29T04:30:10.358Z,0
2017-10-29T04:30:50.811Z,0
2017-10-29T04:31:31.288Z,0
2017-10-29T04:32:11.743Z,0
2017-10-29T04:32:52.205Z,0
2017-10-29T04:33:32.661Z,0
2017-10-29T04:34:13.108Z,0
2017-10-29T04:34:53.570Z,0
2017-10-29T04:35:34.035Z,0
2017-10-29T04:36:14.484Z,0
2017-10-29T04:36:54.933Z,0
2017-10-29T04:37:35.380Z,0
2017-10-29T04:38:15.828Z,0
2017-10-29T04:38:56.263Z,0
2017-10-29T04:39:36.711Z,0
2017-10-29T04:40:17.157Z,0
2017-10-29T04:40:57.635Z,0
2017-10-29T04:41:38.089Z,0
2017-10-29T04:42:18.544Z,0
2017-10-29T04:42:59.000Z,0
2017-10-29T04:43:39.462Z,0
2017-10-29T04:44:19.915Z,0
2017-10-29T04:45:00.370Z,0
2017-10-29T04:45:40.829Z,0
2017-10-29T04:46:21.282Z,0
2017-10-29T04:47:01.731Z,0
2017-10-29T04:47:42.178Z,0
2017-10-29T04:48:22.632Z,0
2017-10-29T04:49:03.095Z,0
2017-10-29T04:49:43.558Z,0
2017-10-29T04:50:24.012Z,0
2017-10-29T04:51:04.456Z,0
2017-10-29T04:51:44.900Z,0
2017-10-29T04:52:25.351Z,0
2017-10-29T04:53:05.800Z,0
2017-10-29T04:53:46.255Z,0
2017-10-29T04:54:26.709Z,0
2017-10-29T04:55:07.168Z,0
2017-10-29T04:55:47.625Z,0
2017-10-29T04:56:28.081Z,0
2017-10-29T04:57:08.549Z,0
2017-10-29T04:57:49.000Z,0
2017-10-29T04:58:29.456Z,0
2017-10-29T04:59:09.922Z,0
2017-10-29T04:59:50.380Z,0
2017-10-29T05:00:30.831Z,0
2017-10-29T05:01:11.291Z,0
2017-10-29T05:01:51.750Z,0
2017-10-29T05:02:32.206Z,0
2017-10-29T05:03:12.659Z,0
2017-10-29T05:03:53.108Z,0
2017-10-29T05:04:33.563Z,0
2017-10-29T05:05:14.028Z,0
2017-10-29T05:05:54.485Z,0
2017-10-29T05:06:34.941Z,0
2017-10-29T05:07:15.381Z,0
2017-10-29T05:07:55.843Z,0
2017-10-29T05:08:36.310Z,0
2017-10-29T05:09:16.765Z,0
2017-10-29T05:09:57.208Z,0
2017-10-29T05:10:37.655Z,0
2017-10-29T05:11:18.102Z,0
2017-10-29T05:11:58.549Z,0
2017-10-29T05:12:39.001Z,0
2017-10-29T05:13:19.475Z,0
2017-10-29T05:13:59.898Z,0
2017-10-29T05:14:40.361Z,0
2017-10-29T05:15:20.800Z,0
2017-10-29T05:16:01.250Z,0
2017-10-29T05:16:41.720Z,0
2017-10-29T05:17:22.171Z,0
2017-10-29T05:18:02.636Z,0
2017-10-29T05:18:43.092Z,0
2017-10-29T05:19:23.539Z,0
2017-10-29T05:20:03.987Z,0
2017-10-29T05:20:44.439Z,0
2017-10-29T05:21:24.906Z,0
2017-10-29T05:22:05.351Z,0
2017-10-29T05:22:45.794Z,0
2017-10-29T05:23:26.251Z,0
2017-10-29T05:24:06.745Z,0
2017-10-29T05:24:47.180Z,0
2017-10-29T05:25:27.623Z,0
2017-10-29T05:26:08.079Z,0
2017-10-29T05:26:48.532Z,0
2017-10-29T05:27:28.998Z,0
2017-10-29T05:28:09.449Z,0
2017-10-29T05:28:49.897Z,0
2017-10-29T05:29:30.362Z,0
2017-10-29T05:30:10.838Z,0
2017-10-29T05:30:51.284Z,0
2017-10-29T05:31:31.730Z,0
2017-10-29T05:32:12.187Z,0
2017-10-29T05:32:52.635Z,0
2017-10-29T05:33:33.068Z,0
2017-10-29T05:34:13.554Z,0
2017-10-29T05:34:53.993Z,0
2017-10-29T05:35:34.442Z,0
2017-10-29T05:36:14.886Z,0
2017-10-29T05:36:55.354Z,0
2017-10-29T05:37:35.802Z,0
2017-10-29T05:38:16.252Z,0
2017-10-29T05:38:56.719Z,0
2017-10-29T05:39:37.162Z,0
2017-10-29T05:40:17.611Z,0
2017-10-29T05:40:58.082Z,0
2017-10-29T05:41:38.537Z,0
2017-10-29T05:42:19.000Z,0
2017-10-29T05:42:59.449Z,0
2017-10-29T05:43:39.904Z,0
2017-10-29T05:44:20.365Z,0
2017-10-29T05:45:00.813Z,0
2017-10-29T05:45:41.267Z,0
2017-10-29T05:46:21.724Z,0
2017-10-29T05:47:02.179Z,0
2017-10-29T05:47:42.628Z,0
2017-10-29T05:48:23.101Z,0
2017-10-29T05:49:03.550Z,0
2017-10-29T05:49:44.022Z,0
2017-10-29T05:50:24.468Z,0
2017-10-29T05:51:05.064Z,0
2017-10-29T05:51:45.401Z,0
2017-10-29T05:52:25.925Z,0
2017-10-29T05:53:06.577Z,0
2017-10-29T05:53:46.964Z,0
2017-10-29T05:54:27.428Z,0
2017-10-29T05:55:08.040Z,0
2017-10-29T05:55:48.493Z,0
2017-10-29T05:56:28.944Z,0
2017-10-29T05:57:09.766Z,0
2017-10-29T05:57:50.218Z,0
2017-10-29T05:58:30.677Z,0
2017-10-29T05:59:11.131Z,0
2017-10-29T05:59:51.589Z,0
2017-10-29T06:00:32.046Z,0
2017-10-29T06:01:12.490Z,0
2017-10-29T06:01:52.937Z,0
2017-10-29T06:02:33.391Z,0
2017-10-29T06:03:13.850Z,0
2017-10-29T06:03:54.367Z,0
2017-10-29T06:04:34.748Z,0
2017-10-29T06:05:15.201Z,0
2017-10-29T06:05:55.658Z,0
2017-10-29T06:06:36.094Z,0
2017-10-29T06:07:16.554Z,0
2017-10-29T06:07:57.006Z,0
2017-10-29T06:08:37.453Z,0
2017-10-29T06:09:17.923Z,0
2017-10-29T06:09:58.384Z,0
2017-10-29T06:10:38.811Z,0
2017-10-29T06:11:19.265Z,0
2017-10-29T06:11:59.726Z,0
2017-10-29T06:12:40.356Z,0
2017-10-29T06:13:20.815Z,0
2017-10-29T06:14:01.279Z,0
2017-10-29T06:14:41.758Z,0
2017-10-29T06:15:22.212Z,0
2017-10-29T06:16:02.654Z,0
2017-10-29T06:16:43.102Z,0
2017-10-29T06:17:23.547Z,0
2017-10-29T06:18:04.008Z,0
2017-10-29T06:18:44.452Z,0
2017-10-29T06:19:24.912Z,0
2017-10-29T06:20:05.365Z,0
2017-10-29T06:20:45.818Z,0
2017-10-29T06:21:26.266Z,0
2017-10-29T06:22:06.717Z,0
2017-10-29T06:22:47.176Z,0
2017-10-29T06:23:27.624Z,0
2017-10-29T06:24:08.068Z,0
2017-10-29T06:24:48.523Z,0
2017-10-29T06:25:28.981Z,0
2017-10-29T06:26:09.436Z,0
2017-10-29T06:26:49.897Z,0
2017-10-29T06:27:30.352Z,0
2017-10-29T06:28:10.815Z,0
2017-10-29T06:28:51.264Z,0
2017-10-29T06:29:31.777Z,0
2017-10-29T06:30:12.257Z,0
2017-10-29T06:30:52.713Z,0
2017-10-29T06:31:33.152Z,0
2017-10-29T06:32:13.609Z,0
2017-10-29T06:32:54.059Z,0
2017-10-29T06:33:34.511Z,0
2017-10-29T06:34:14.964Z,0
2017-10-29T06:34:55.431Z,0
2017-10-29T06:35:35.881Z,0
2017-10-29T06:36:16.326Z,0
2017-10-29T06:36:56.778Z,0
2017-10-29T06:37:37.256Z,0
2017-10-29T06:38:17.680Z,0
2017-10-29T06:38:58.149Z,0
2017-10-29T06:39:38.597Z,0
2017-10-29T06:40:19.070Z,0
2017-10-29T06:40:59.514Z,0
2017-10-29T06:41:40.019Z,0
2017-10-29T06:42:20.475Z,0
2017-10-29T06:43:00.940Z,0
2017-10-29T06:43:41.396Z,0
2017-10-29T06:44:21.870Z,0
2017-10-29T06:45:02.316Z,0
2017-10-29T06:45:42.752Z,0
2017-10-29T06:46:23.203Z,0
2017-10-29T06:47:03.659Z,0
2017-10-29T06:47:44.095Z,0
2017-10-29T06:48:24.808Z,0
2017-10-29T06:49:05.275Z,0
2017-10-29T06:49:46.029Z,0
2017-10-29T06:50:26.496Z,0
2017-10-29T06:51:06.940Z,0
2017-10-29T06:53:24.973Z,0
2017-10-29T06:54:05.425Z,0
2017-10-29T06:54:45.888Z,0
2017-10-29T06:55:26.341Z,0
2017-10-29T06:56:07.046Z,0
2017-10-29T06:56:47.547Z,0
2017-10-29T06:57:27.978Z,0
2017-10-29T06:58:08.526Z,0
2017-10-29T06:58:49.059Z,0
2017-10-29T06:59:29.513Z,0
2017-10-29T07:00:10.015Z,0
2017-10-29T07:00:50.502Z,0
2017-10-29T07:01:30.948Z,0
2017-10-29T07:02:11.411Z,0
2017-10-29T07:02:51.884Z,0
2017-10-29T07:03:32.324Z,0
2017-10-29T07:04:12.776Z,0
2017-10-29T07:04:53.243Z,0
2017-10-29T07:05:33.702Z,0
2017-10-29T07:06:15.069Z,0
2017-10-29T07:06:55.518Z,0
2017-10-29T07:07:35.972Z,0
2017-10-29T07:08:16.423Z,0
2017-10-29T07:08:56.879Z,0
2017-10-29T07:09:37.330Z,0
2017-10-29T07:10:17.786Z,0
2017-10-29T07:10:58.241Z,0
2017-10-29T07:11:38.709Z,0
2017-10-29T07:12:19.160Z,0
2017-10-29T07:12:59.610Z,0
2017-10-29T07:13:40.067Z,0
2017-10-29T07:14:20.512Z,0
2017-10-29T07:15:00.975Z,0
2017-10-29T07:15:41.413Z,0
2017-10-29T07:16:21.900Z,0
2017-10-29T07:17:02.335Z,0
2017-10-29T07:17:42.787Z,0
2017-10-29T07:18:23.250Z,0
2017-10-29T07:19:03.944Z,0
2017-10-29T07:19:44.150Z,0
2017-10-29T07:20:24.608Z,0
2017-10-29T07:21:05.068Z,0
2017-10-29T07:21:45.533Z,0
2017-10-29T07:22:25.992Z,0
2017-10-29T07:23:06.431Z,0
2017-10-29T07:23:46.895Z,0
2017-10-29T07:24:27.349Z,0
2017-10-29T07:25:08.016Z,0
2017-10-29T07:25:48.477Z,0
2017-10-29T07:26:28.934Z,0
2017-10-29T07:27:09.530Z,0
2017-10-29T07:27:49.991Z,0
2017-10-29T07:28:30.516Z,0
2017-10-29T07:30:58.592Z,0
2017-10-29T07:31:39.103Z,0
2017-10-29T07:32:19.571Z,0
2017-10-29T07:33:00.105Z,0
2017-10-29T07:33:41.007Z,0
2017-10-29T07:34:21.439Z,0
2017-10-29T07:35:01.891Z,0
2017-10-29T07:35:42.348Z,0
2017-10-29T07:36:23.150Z,0
2017-10-29T07:37:03.630Z,0
2017-10-29T07:37:44.085Z,0
2017-10-29T07:38:24.690Z,0
2017-10-29T07:39:05.180Z,0
2017-10-29T07:39:45.635Z,0
2017-10-29T07:40:26.075Z,0
2017-10-29T07:41:06.535Z,0
2017-10-29T07:41:46.982Z,0
2017-10-29T07:42:27.423Z,0
2017-10-29T07:43:07.872Z,0
2017-10-29T07:43:48.313Z,0
2017-10-29T07:44:28.760Z,0
2017-10-29T07:45:09.202Z,0
2017-10-29T07:45:49.661Z,0
2017-10-29T07:46:30.174Z,0
2017-10-29T07:47:10.642Z,0
2017-10-29T07:47:51.319Z,0
2017-10-29T07:48:31.782Z,0
2017-10-29T07:49:12.337Z,0
2017-10-29T07:49:52.796Z,0
2017-10-29T07:50:33.236Z,0
2017-10-29T07:51:13.672Z,0
2017-10-29T07:51:54.221Z,0
2017-10-29T07:52:34.658Z,0
2017-10-29T07:53:15.103Z,0
2017-10-29T07:53:55.558Z,0
2017-10-29T07:54:36.010Z,0
2017-10-29T07:55:16.475Z,0
2017-10-29T07:55:56.928Z,0
2017-10-29T07:56:37.387Z,0
2017-10-29T07:57:17.934Z,0
2017-10-29T07:57:58.332Z,0
2017-10-29T07:58:38.788Z,0
2017-10-29T07:59:19.343Z,0
2017-10-29T07:59:59.785Z,0
2017-10-29T08:00:40.248Z,0
2017-10-29T08:01:20.676Z,0
2017-10-29T08:02:01.131Z,0
2017-10-29T08:02:41.586Z,0
2017-10-29T08:03:22.037Z,0
2017-10-29T08:04:02.491Z,0
2017-10-29T08:04:42.945Z,0
2017-10-29T08:05:23.396Z,0
2017-10-29T08:06:03.858Z,0
2017-10-29T08:06:44.319Z,5
2017-10-29T08:07:24.755Z,0
2017-10-29T08:08:05.193Z,0
2017-10-29T08:08:45.641Z,0
2017-10-29T08:09:26.122Z,0
2017-10-29T08:10:06.570Z,0
2017-10-29T08:10:47.016Z,0
2017-10-29T08:11:27.466Z,0
2017-10-29T08:12:07.918Z,0
2017-10-29T08:12:48.417Z,0
2017-10-29T08:13:28.856Z,0
2017-10-29T08:14:09.318Z,0
2017-10-29T08:14:49.775Z,0
2017-10-29T08:15:30.251Z,0
2017-10-29T08:16:10.723Z,0
2017-10-29T08:16:51.188Z,0
2017-10-29T08:17:31.713Z,0
2017-10-29T08:18:12.468Z,0
2017-10-29T08:18:52.852Z,0
2017-10-29T08:19:34.160Z,0
2017-10-29T08:20:14.658Z,5
2017-10-29T08:20:55.109Z,5
2017-10-29T08:21:36.885Z,5
2017-10-29T08:22:16.656Z,5
2017-10-29T08:22:57.112Z,5
2017-10-29T08:23:37.544Z,0
2017-10-29T08:24:17.992Z,0
2017-10-29T08:24:58.449Z,0
2017-10-29T08:25:39.270Z,0
2017-10-29T08:26:19.707Z,5
2017-10-29T08:27:00.299Z,0
2017-10-29T08:27:40.712Z,0
2017-10-29T08:28:21.264Z,0
2017-10-29T08:29:01.720Z,0
2017-10-29T08:29:42.177Z,5
2017-10-29T08:30:22.626Z,0
2017-10-29T08:31:03.071Z,5
2017-10-29T08:31:43.527Z,0
2017-10-29T08:32:23.979Z,0
2017-10-29T08:33:04.453Z,5
2017-10-29T08:33:44.941Z,5
2017-10-29T08:34:25.376Z,10
2017-10-29T08:35:05.830Z,50
2017-10-29T08:35:46.277Z,160
2017-10-29T08:36:26.729Z,160
2017-10-29T08:37:07.191Z,20
2017-10-29T08:37:47.633Z,20
2017-10-29T08:38:28.080Z,25
2017-10-29T08:39:08.524Z,20
2017-10-29T08:39:48.979Z,35
2017-10-29T08:40:29.501Z,165
2017-10-29T08:41:09.958Z,175
2017-10-29T08:41:50.408Z,35
2017-10-29T08:42:30.866Z,170
2017-10-29T08:43:11.332Z,165
2017-10-29T08:43:51.796Z,170
2017-10-29T08:44:32.247Z,170
2017-10-29T08:45:12.695Z,170
2017-10-29T08:45:53.142Z,160
2017-10-29T08:46:33.596Z,170
2017-10-29T08:49:01.626Z,170
2017-10-29T08:49:42.038Z,170
2017-10-29T08:50:22.485Z,65
2017-10-29T08:51:02.940Z,30
2017-10-29T08:51:43.386Z,20
2017-10-29T08:52:23.841Z,20
2017-10-29T08:53:04.300Z,20
2017-10-29T08:53:44.766Z,15
2017-10-29T08:54:25.229Z,15
2017-10-29T08:55:05.682Z,15
2017-10-29T08:55:46.337Z,15
2017-10-29T08:56:26.920Z,15
2017-10-29T08:57:07.319Z,20
2017-10-29T08:57:47.772Z,20
2017-10-29T08:58:28.222Z,20
2017-10-29T08:59:08.682Z,20
2017-10-29T08:59:49.133Z,20
2017-10-29T09:00:29.632Z,20
2017-10-29T09:01:10.082Z,25
2017-10-29T09:01:50.529Z,165
2017-10-29T09:02:30.973Z,160
2017-10-29T09:03:11.415Z,150
2017-10-29T09:03:51.863Z,160
2017-10-29T09:04:32.322Z,30
2017-10-29T09:05:12.788Z,25
2017-10-29T09:05:53.252Z,60
2017-10-29T09:06:33.709Z,35
2017-10-29T09:07:14.147Z,55
2017-10-29T09:07:54.614Z,40
2017-10-29T09:08:35.075Z,90
2017-10-29T09:09:15.515Z,175
2017-10-29T09:09:55.971Z,170
2017-10-29T09:10:36.423Z,180
2017-10-29T09:11:16.876Z,180
2017-10-29T09:11:57.351Z,95
2017-10-29T09:12:37.856Z,180
2017-10-29T09:13:18.347Z,185
2017-10-29T09:13:58.968Z,185
2017-10-29T09:14:39.421Z,185
2017-10-29T09:15:19.874Z,185
2017-10-29T09:16:00.321Z,185
2017-10-29T09:16:40.769Z,185
2017-10-29T09:17:21.218Z,185
2017-10-29T09:18:01.687Z,185
2017-10-29T09:18:42.177Z,185
2017-10-29T09:19:22.631Z,185
2017-10-29T09:20:03.084Z,185
2017-10-29T09:20:43.537Z,180
2017-10-29T09:21:23.985Z,180
2017-10-29T09:22:04.429Z,180
2017-10-29T09:22:44.894Z,55
2017-10-29T09:23:25.363Z,175
2017-10-29T09:24:05.817Z,175
2017-10-29T09:24:46.275Z,175
2017-10-29T09:25:26.727Z,180
2017-10-29T09:26:07.188Z,175
2017-10-29T09:26:47.644Z,175
2017-10-29T09:27:28.107Z,185
2017-10-29T09:28:08.554Z,180
2017-10-29T09:28:49.018Z,180
2017-10-29T09:29:29.462Z,170
2017-10-29T09:30:09.915Z,165
2017-10-29T09:30:50.367Z,170
2017-10-29T09:31:30.826Z,180
2017-10-29T09:32:11.276Z,180
2017-10-29T09:32:51.736Z,175
2017-10-29T09:33:32.184Z,105
2017-10-29T09:34:12.632Z,45
2017-10-29T09:34:53.087Z,185
2017-10-29T09:35:33.551Z,180
2017-10-29T09:36:13.992Z,185
2017-10-29T09:36:54.425Z,190
2017-10-29T09:37:34.873Z,185
2017-10-29T09:38:15.331Z,180
2017-10-29T09:38:55.796Z,40
2017-10-29T09:39:36.230Z,30
2017-10-29T09:40:16.694Z,45
2017-10-29T09:40:57.144Z,180
2017-10-29T09:41:37.597Z,185
2017-10-29T09:42:18.041Z,185
2017-10-29T09:42:58.509Z,190
2017-10-29T09:43:38.965Z,50
2017-10-29T09:44:19.420Z,155
2017-10-29T09:44:59.880Z,45
2017-10-29T09:45:40.331Z,45
2017-10-29T09:46:21.066Z,25
2017-10-29T09:47:01.360Z,30
2017-10-29T09:47:41.813Z,105
2017-10-29T09:48:22.249Z,140
2017-10-29T09:49:02.706Z,80
2017-10-29T09:49:43.178Z,35
2017-10-29T09:50:23.616Z,30
2017-10-29T09:51:04.054Z,145
2017-10-29T09:51:44.505Z,190
2017-10-29T09:52:24.963Z,190
2017-10-29T09:53:05.410Z,45
2017-10-29T09:53:45.870Z,180
2017-10-29T09:54:26.501Z,50
2017-10-29T09:55:06.957Z,190
2017-10-29T09:55:47.378Z,195
2017-10-29T09:56:27.846Z,190
2017-10-29T09:57:08.297Z,75
2017-10-29T09:57:48.763Z,35
2017-10-29T09:58:29.215Z,30
2017-10-29T09:59:09.658Z,30
2017-10-29T09:59:50.118Z,115